createdAt,value
2023-02-12T00:00:52.900Z,101172.50
2023-02-12T00:03:44.005Z,101187.50
2023-02-12T00:06:26.939Z,101183.19
2023-02-12T00:09:09.597Z,101175.97
2023-02-12T00:12:00.607Z,101173.41
2023-02-12T00:14:39.953Z,101176.97
2023-02-12T00:17:30.776Z,101182.13
2023-02-12T00:20:10.354Z,101198.59
2023-02-12T00:23:01.638Z,101207.56
2023-02-12T00:25:42.585Z,101211.25
2023-02-12T00:28:33.756Z,101193.94
2023-02-12T00:31:34.671Z,101206.00
2023-02-12T00:34:17.416Z,101212.31
2023-02-12T00:36:59.630Z,101214.97
2023-02-12T00:39:41.972Z,101215.19
2023-02-12T00:42:24.609Z,101198.41
2023-02-12T00:45:06.940Z,101196.81
2023-02-12T00:48:01.471Z,101199.31
2023-02-12T00:50:56.552Z,101190.34
2023-02-12T00:53:38.797Z,101190.38
2023-02-12T00:56:20.555Z,101178.12
2023-02-12T00:59:02.647Z,101179.00
2023-02-12T01:01:56.712Z,101176.44
2023-02-12T01:04:38.680Z,101176.31
2023-02-12T01:07:29.699Z,101185.22
2023-02-12T01:10:11.746Z,101181.78
2023-02-12T01:13:05.694Z,101184.38
2023-02-12T01:15:44.825Z,101178.31
2023-02-12T01:18:26.584Z,101181.78
2023-02-12T01:21:14.456Z,101166.13
2023-02-12T01:24:06.066Z,101165.13
2023-02-12T01:26:45.823Z,101158.16
2023-02-12T01:29:37.178Z,101157.19
2023-02-12T01:32:19.780Z,101162.63
2023-02-12T01:35:01.619Z,101157.38
2023-02-12T01:37:43.856Z,101160.62
2023-02-12T01:40:25.588Z,101154.78
2023-02-12T01:43:12.006Z,101155.44
2023-02-12T01:46:08.384Z,101154.53
2023-02-12T01:48:48.178Z,101151.16
2023-02-12T01:51:40.056Z,101142.50
2023-02-12T01:54:21.058Z,101138.09
2023-02-12T02:00:55.806Z,101140.06
2023-02-12T02:03:52.945Z,101152.16
2023-02-12T02:06:36.062Z,101149.50
2023-02-12T02:09:30.258Z,101159.22
2023-02-12T02:12:37.561Z,101153.84
2023-02-12T02:15:19.618Z,101165.44
2023-02-12T02:18:09.195Z,101159.03
2023-02-12T02:21:18.504Z,101161.69
2023-02-12T02:24:13.340Z,101160.84
2023-02-12T02:27:16.062Z,101166.13
2023-02-12T02:29:55.630Z,101166.81
2023-02-12T02:33:04.054Z,101156.47
2023-02-12T02:35:52.726Z,101160.62
2023-02-12T02:39:16.401Z,101179.97
2023-02-12T02:42:11.576Z,101175.59
2023-02-12T02:44:56.171Z,101185.25
2023-02-12T02:47:54.321Z,101195.97
2023-02-12T02:50:37.018Z,101195.84
2023-02-12T02:53:10.966Z,101205.38
2023-02-12T02:55:49.082Z,101204.50
2023-02-12T02:58:27.568Z,101205.66
2023-02-12T03:01:02.546Z,101210.84
2023-02-12T03:04:04.359Z,101204.06
2023-02-12T03:06:40.606Z,101211.88
2023-02-12T03:09:34.946Z,101208.47
2023-02-12T03:12:23.496Z,101217.94
2023-02-12T03:15:23.551Z,101218.88
2023-02-12T03:17:51.784Z,101221.44
2023-02-12T03:20:49.513Z,101228.34
2023-02-12T03:23:37.869Z,101237.78
2023-02-12T03:26:39.681Z,101243.19
2023-02-12T03:29:18.957Z,101244.06
2023-02-12T03:32:44.829Z,101253.75
2023-02-12T03:35:52.767Z,101251.94
2023-02-12T03:38:51.604Z,101246.66
2023-02-12T03:42:05.966Z,101260.75
2023-02-12T03:44:53.311Z,101260.56
2023-02-12T03:47:46.709Z,101248.50
2023-02-12T03:50:55.316Z,101252.00
2023-02-12T03:53:37.681Z,101265.94
2023-02-12T03:56:41.819Z,101262.53
2023-02-12T03:59:24.896Z,101266.16
2023-02-12T04:02:17.343Z,101262.62
2023-02-12T04:05:24.566Z,101261.69
2023-02-12T04:08:07.004Z,101273.09
2023-02-12T04:11:13.917Z,101268.72
2023-02-12T04:14:08.835Z,101285.38
2023-02-12T04:17:18.337Z,101283.63
2023-02-12T04:20:38.300Z,101281.78
2023-02-12T04:23:48.353Z,101290.56
2023-02-12T04:26:37.756Z,101288.84
2023-02-12T04:29:50.521Z,101292.34
2023-02-12T04:32:41.227Z,101313.31
2023-02-12T04:35:41.030Z,101316.84
2023-02-12T04:38:27.100Z,101306.31
2023-02-12T04:41:28.900Z,101305.41
2023-02-12T04:44:16.013Z,101301.91
2023-02-12T04:46:58.889Z,101307.13
2023-02-12T04:49:46.744Z,101316.78
2023-02-12T04:52:28.780Z,101322.03
2023-02-12T04:55:22.467Z,101333.44
2023-02-12T04:58:18.477Z,101333.44
2023-02-12T05:01:10.578Z,101335.19
2023-02-12T05:03:49.787Z,101339.56
2023-02-12T05:06:40.965Z,101336.97
2023-02-12T05:09:21.265Z,101348.28
2023-02-12T05:12:03.597Z,101339.50
2023-02-12T05:14:45.598Z,101339.47
2023-02-12T05:17:27.639Z,101350.00
2023-02-12T05:20:21.358Z,101354.41
2023-02-12T05:23:03.691Z,101353.56
2023-02-12T05:25:55.183Z,101359.66
2023-02-12T05:28:23.449Z,101363.16
2023-02-12T05:30:51.482Z,101371.84
2023-02-12T05:33:19.235Z,101385.00
2023-02-12T05:35:47.000Z,101384.16
2023-02-12T05:38:34.903Z,101385.03
2023-02-12T05:41:09.221Z,101373.63
2023-02-12T05:43:37.225Z,101388.50
2023-02-12T05:46:06.623Z,101399.00
2023-02-12T05:48:34.927Z,101392.03
2023-02-12T05:51:39.305Z,101395.50
2023-02-12T05:54:20.823Z,101399.87
2023-02-12T05:56:50.729Z,101412.13
2023-02-12T05:59:22.046Z,101421.69
2023-02-12T06:02:13.539Z,101412.13
2023-02-12T06:05:04.794Z,101421.75
2023-02-12T06:07:43.860Z,101430.41
2023-02-12T06:10:35.712Z,101438.34
2023-02-12T06:17:38.256Z,101435.72
2023-02-12T06:20:20.490Z,101447.97
2023-02-12T06:23:14.356Z,101441.84
2023-02-12T06:25:57.735Z,101451.47
2023-02-12T06:28:39.580Z,101459.31
2023-02-12T06:31:27.485Z,101460.22
2023-02-12T06:34:18.670Z,101455.81
2023-02-12T06:36:57.714Z,101453.22
2023-02-12T06:39:49.570Z,101464.59
2023-02-12T06:42:33.107Z,101457.59
2023-02-12T06:45:22.979Z,101453.22
2023-02-12T06:48:05.845Z,101452.34
2023-02-12T06:50:56.868Z,101462.84
2023-02-12T06:53:36.299Z,101459.34
2023-02-12T06:56:27.568Z,101475.94
2023-02-12T06:59:06.763Z,101477.72
2023-02-12T07:01:49.109Z,101475.06
2023-02-12T07:04:17.559Z,101476.78
2023-02-12T07:07:11.436Z,101486.47
2023-02-12T07:09:50.815Z,101489.88
2023-02-12T07:12:18.867Z,101497.72
2023-02-12T07:14:46.849Z,101496.88
2023-02-12T07:17:14.437Z,101502.97
2023-02-12T07:19:42.636Z,101502.84
2023-02-12T07:22:10.105Z,101514.09
2023-02-12T07:24:39.262Z,101507.13
2023-02-12T07:27:08.397Z,101514.94
2023-02-12T07:29:40.438Z,101524.53
2023-02-12T07:32:19.383Z,101525.47
2023-02-12T07:35:07.478Z,101532.59
2023-02-12T07:38:00.083Z,101538.53
2023-02-12T07:40:32.951Z,101547.12
2023-02-12T07:43:06.912Z,101541.87
2023-02-12T07:45:36.354Z,101538.37
2023-02-12T07:48:07.167Z,101541.78
2023-02-12T07:51:05.094Z,101548.84
2023-02-12T07:53:34.486Z,101557.50
2023-02-12T07:56:17.545Z,101552.84
2023-02-12T07:58:54.265Z,101552.91
2023-02-12T08:01:28.715Z,101561.00
2023-02-12T08:04:04.284Z,101557.47
2023-02-12T08:06:35.957Z,101549.13
2023-02-12T08:09:27.802Z,101555.91
2023-02-12T08:11:59.112Z,101557.94
2023-02-12T08:14:29.663Z,101556.09
2023-02-12T08:17:01.192Z,101551.97
2023-02-12T08:19:28.961Z,101563.94
2023-02-12T08:22:06.576Z,101570.88
2023-02-12T08:24:34.204Z,101576.00
2023-02-12T08:27:02.449Z,101580.00
2023-02-12T08:29:41.236Z,101585.09
2023-02-12T08:32:22.648Z,101574.66
2023-02-12T08:34:55.815Z,101582.69
2023-02-12T08:37:26.827Z,101578.06
2023-02-12T08:40:00.005Z,101587.38
2023-02-12T08:42:28.001Z,101587.81
2023-02-12T08:44:55.911Z,101594.19
2023-02-12T08:47:23.439Z,101585.22
2023-02-12T08:49:51.170Z,101593.63
2023-02-12T08:52:19.714Z,101588.59
2023-02-12T08:54:47.219Z,101588.59
2023-02-12T08:57:14.856Z,101593.72
2023-02-12T08:59:42.735Z,101593.59
2023-02-12T09:02:11.249Z,101600.25
2023-02-12T09:04:40.249Z,101598.91
2023-02-12T09:07:10.718Z,101606.00
2023-02-12T09:09:38.594Z,101610.19
2023-02-12T09:12:06.148Z,101613.94
2023-02-12T09:14:34.239Z,101612.19
2023-02-12T09:17:01.942Z,101614.41
2023-02-12T09:19:29.594Z,101617.25
2023-02-12T09:21:57.680Z,101619.28
2023-02-12T09:24:27.854Z,101617.31
2023-02-12T09:26:55.947Z,101618.97
2023-02-12T09:29:24.037Z,101626.31
2023-02-12T09:31:51.867Z,101628.91
2023-02-12T09:34:20.980Z,101630.59
2023-02-12T09:36:49.066Z,101634.59
2023-02-12T09:39:16.540Z,101623.78
2023-02-12T09:42:02.828Z,101635.34
2023-02-12T09:44:49.056Z,101634.56
2023-02-12T09:47:31.286Z,101622.41
2023-02-12T09:50:18.054Z,101623.59
2023-02-12T09:52:45.707Z,101625.38
2023-02-12T09:55:18.280Z,101625.69
2023-02-12T09:57:46.363Z,101628.84
2023-02-12T10:00:20.457Z,101625.66
2023-02-12T10:02:52.179Z,101632.91
2023-02-12T10:05:23.830Z,101638.16
2023-02-12T10:08:14.683Z,101641.38
2023-02-12T10:10:52.252Z,101630.16
2023-02-12T10:13:36.724Z,101641.78
2023-02-12T10:16:38.529Z,101643.34
2023-02-12T10:19:20.094Z,101646.94
2023-02-12T10:22:04.045Z,101652.97
2023-02-12T10:25:12.538Z,101655.56
2023-02-12T10:27:45.286Z,101649.50
2023-02-12T10:30:20.551Z,101655.09
2023-02-12T10:32:51.981Z,101663.25
2023-02-12T10:35:21.636Z,101656.06
2023-02-12T10:38:05.249Z,101656.84
2023-02-12T10:40:34.200Z,101664.28
2023-02-12T10:43:02.586Z,101658.69
2023-02-12T10:45:39.835Z,101659.84
2023-02-12T10:48:20.736Z,101662.59
2023-02-12T10:51:00.481Z,101669.78
2023-02-12T10:53:42.915Z,101661.75
2023-02-12T10:56:20.442Z,101661.69
2023-02-12T10:58:57.193Z,101665.69
2023-02-12T11:01:28.892Z,101664.91
2023-02-12T11:04:00.360Z,101660.34
2023-02-12T11:06:30.820Z,101660.06
2023-02-12T11:08:59.720Z,101661.03
2023-02-12T11:11:32.122Z,101658.69
2023-02-12T11:14:03.646Z,101665.16
2023-02-12T11:16:32.959Z,101659.25
2023-02-12T11:19:24.528Z,101658.69
2023-02-12T11:21:52.708Z,101659.94
2023-02-12T11:24:21.723Z,101666.03
2023-02-12T11:26:49.646Z,101666.75
2023-02-12T11:29:24.595Z,101663.03
2023-02-12T11:32:08.939Z,101660.94
2023-02-12T11:34:37.079Z,101666.22
2023-02-12T11:37:14.678Z,101673.06
2023-02-12T11:39:46.877Z,101669.81
2023-02-12T11:42:20.478Z,101674.09
2023-02-12T11:44:51.495Z,101668.25
2023-02-12T11:47:30.803Z,101667.47
2023-02-12T11:50:00.551Z,101663.38
2023-02-12T11:52:30.058Z,101666.44
2023-02-12T11:55:24.759Z,101671.91
2023-02-12T11:57:55.129Z,101671.38
2023-02-12T12:00:37.147Z,101671.91
2023-02-12T12:03:05.044Z,101667.87
2023-02-12T12:05:37.386Z,101667.69
2023-02-12T12:08:16.758Z,101670.03
2023-02-12T12:10:48.758Z,101665.56
2023-02-12T12:13:18.381Z,101660.75
2023-02-12T12:16:07.502Z,101669.59
2023-02-12T12:19:07.671Z,101663.50
2023-02-12T12:21:54.190Z,101658.56
2023-02-12T12:24:28.733Z,101646.69
2023-02-12T12:27:04.824Z,101650.78
2023-02-12T12:29:46.246Z,101646.59
2023-02-12T12:32:16.023Z,101646.16
2023-02-12T12:34:44.420Z,101645.94
2023-02-12T12:37:26.013Z,101650.91
2023-02-12T12:40:13.774Z,101645.50
2023-02-12T12:42:59.955Z,101644.63
2023-02-12T12:45:53.227Z,101647.56
2023-02-12T12:48:23.728Z,101638.97
2023-02-12T12:51:23.817Z,101640.75
2023-02-12T12:54:24.659Z,101643.16
2023-02-12T12:57:16.896Z,101641.50
2023-02-12T12:59:55.006Z,101639.34
2023-02-12T13:03:05.302Z,101643.69
2023-02-12T13:06:06.151Z,101644.28
2023-02-12T13:08:44.209Z,101646.41
2023-02-12T13:11:30.549Z,101644.53
2023-02-12T13:14:11.465Z,101638.19
2023-02-12T13:16:56.640Z,101643.81
2023-02-12T13:19:54.181Z,101644.56
2023-02-12T13:22:27.701Z,101639.19
2023-02-12T13:25:01.823Z,101641.59
2023-02-12T13:27:34.633Z,101633.28
2023-02-12T13:30:15.701Z,101641.66
2023-02-12T13:32:46.960Z,101650.22
2023-02-12T13:35:20.517Z,101645.84
2023-02-12T13:37:50.647Z,101648.50
2023-02-12T13:40:22.864Z,101651.41
2023-02-12T13:42:53.415Z,101640.63
2023-02-12T13:45:25.587Z,101649.25
2023-02-12T13:47:59.933Z,101658.00
2023-02-12T13:50:46.089Z,101655.22
2023-02-12T13:53:25.458Z,101662.31
2023-02-12T13:56:17.379Z,101661.72
2023-02-12T13:58:53.353Z,101654.41
2023-02-12T14:01:39.670Z,101665.56
2023-02-12T14:04:28.592Z,101672.66
2023-02-12T14:07:06.727Z,101664.81
2023-02-12T14:09:40.614Z,101666.28
2023-02-12T14:12:17.096Z,101665.44
2023-02-12T14:14:47.535Z,101666.81
2023-02-12T14:17:33.708Z,101661.19
2023-02-12T14:20:22.154Z,101669.62
2023-02-12T14:22:50.489Z,101671.31
2023-02-12T14:25:40.029Z,101670.31
2023-02-12T14:28:20.659Z,101671.31
2023-02-12T14:31:20.804Z,101678.25
2023-02-12T14:33:53.480Z,101674.69
2023-02-12T14:36:34.073Z,101679.25
2023-02-12T14:39:26.373Z,101680.41
2023-02-12T14:42:06.851Z,101680.16
2023-02-12T14:44:44.474Z,101687.28
2023-02-12T14:47:29.307Z,101686.72
2023-02-12T14:50:02.192Z,101694.37
2023-02-12T14:52:38.860Z,101700.38
2023-02-12T14:55:18.061Z,101703.00
2023-02-12T14:57:46.687Z,101699.13
2023-02-12T15:00:17.190Z,101706.91
2023-02-12T15:02:50.052Z,101700.38
2023-02-12T15:05:23.515Z,101704.66
2023-02-12T15:07:55.745Z,101690.44
2023-02-12T15:10:27.973Z,101704.72
2023-02-12T15:13:31.553Z,101698.81
2023-02-12T15:16:09.351Z,101701.44
2023-02-12T15:18:49.759Z,101704.97
2023-02-12T15:21:27.749Z,101706.91
2023-02-12T15:24:07.271Z,101711.56
2023-02-12T15:26:41.587Z,101706.91
2023-02-12T15:29:25.826Z,101706.09
2023-02-12T15:32:05.999Z,101708.56
2023-02-12T15:34:36.209Z,101710.59
2023-02-12T15:37:05.252Z,101709.53
2023-02-12T15:39:44.791Z,101719.44
2023-02-12T15:42:30.983Z,101717.63
2023-02-12T15:45:14.140Z,101706.38
2023-02-12T15:47:43.354Z,101706.03
2023-02-12T15:50:15.212Z,101717.53
2023-02-12T15:52:44.206Z,101726.59
2023-02-12T15:55:17.879Z,101722.47
2023-02-12T15:57:58.291Z,101726.41
2023-02-12T16:00:31.809Z,101728.25
2023-02-12T16:02:59.612Z,101731.94
2023-02-12T16:05:27.608Z,101737.44
2023-02-12T16:07:55.576Z,101740.12
2023-02-12T16:10:23.721Z,101754.34
2023-02-12T16:12:51.800Z,101750.84
2023-02-12T16:15:25.207Z,101760.59
2023-02-12T16:17:59.763Z,101758.09
2023-02-12T16:20:30.865Z,101769.63
2023-02-12T16:22:59.805Z,101772.28
2023-02-12T16:25:29.798Z,101781.34
2023-02-12T16:28:18.614Z,101787.13
2023-02-12T16:30:48.409Z,101795.94
2023-02-12T16:33:52.669Z,101784.53
2023-02-12T16:36:20.336Z,101777.78
2023-02-12T16:38:55.364Z,101788.31
2023-02-12T16:41:32.769Z,101786.53
2023-02-12T16:44:00.270Z,101790.78
2023-02-12T16:46:33.074Z,101797.09
2023-02-12T16:49:02.427Z,101805.12
2023-02-12T16:51:35.736Z,101813.94
2023-02-12T16:54:05.040Z,101810.38
2023-02-12T16:56:38.702Z,101818.28
2023-02-12T16:59:06.376Z,101828.00
2023-02-12T17:01:36.121Z,101829.72
2023-02-12T17:04:09.079Z,101831.47
2023-02-12T17:06:37.028Z,101838.50
2023-02-12T17:09:04.539Z,101831.47
2023-02-12T17:11:32.055Z,101848.97
2023-02-12T17:13:59.914Z,101857.63
2023-02-12T17:16:32.055Z,101856.81
2023-02-12T17:19:00.574Z,101863.63
2023-02-12T17:21:38.502Z,101862.75
2023-02-12T17:24:21.121Z,101860.13
2023-02-12T17:26:50.652Z,101870.59
2023-02-12T17:29:20.340Z,101854.03
2023-02-12T17:31:48.404Z,101859.22
2023-02-12T17:34:16.796Z,101861.13
2023-02-12T17:36:44.620Z,101855.69
2023-02-12T17:39:13.565Z,101860.81
2023-02-12T17:41:44.275Z,101859.22
2023-02-12T17:44:14.032Z,101852.84
2023-02-12T17:46:42.457Z,101866.03
2023-02-12T17:49:10.293Z,101866.03
2023-02-12T17:51:38.545Z,101853.66
2023-02-12T17:54:06.222Z,101858.94
2023-02-12T17:56:33.916Z,101858.94
2023-02-12T17:59:01.890Z,101871.44
2023-02-12T18:01:29.420Z,101873.91
2023-02-12T18:03:58.712Z,101872.88
2023-02-12T18:06:29.630Z,101881.56
2023-02-12T18:08:58.977Z,101876.41
2023-02-12T18:11:27.811Z,101881.72
2023-02-12T18:13:57.107Z,101889.53
2023-02-12T18:16:28.101Z,101883.41
2023-02-12T18:18:57.124Z,101893.88
2023-02-12T18:21:24.975Z,101891.19
2023-02-12T18:23:53.909Z,101893.84
2023-02-12T18:26:21.972Z,101882.53
2023-02-12T18:28:50.077Z,101885.19
2023-02-12T18:31:19.689Z,101882.41
2023-02-12T18:33:47.334Z,101891.94
2023-02-12T18:36:17.508Z,101903.94
2023-02-12T18:38:47.372Z,101891.88
2023-02-12T18:41:17.675Z,101891.75
2023-02-12T18:43:45.834Z,101900.47
2023-02-12T18:46:16.688Z,101897.78
2023-02-12T18:48:44.904Z,101900.41
2023-02-12T18:51:38.323Z,101898.59
2023-02-12T18:54:08.784Z,101900.19
2023-02-12T18:56:41.047Z,101904.50
2023-02-12T18:59:09.295Z,101896.62
2023-02-12T19:01:37.082Z,101906.16
2023-02-12T19:04:07.608Z,101902.56
2023-02-12T19:06:40.114Z,101900.81
2023-02-12T19:09:08.579Z,101901.78
2023-02-12T19:11:36.972Z,101905.97
2023-02-12T19:14:04.919Z,101896.44
2023-02-12T19:16:33.508Z,101899.16
2023-02-12T19:19:03.022Z,101903.44
2023-02-12T19:21:30.891Z,101907.44
2023-02-12T19:24:00.395Z,101909.88
2023-02-12T19:26:29.861Z,101910.78
2023-02-12T19:28:58.128Z,101909.94
2023-02-12T19:31:35.238Z,101906.38
2023-02-12T19:34:05.819Z,101911.53
2023-02-12T19:36:35.431Z,101917.63
2023-02-12T19:39:05.885Z,101913.47
2023-02-12T19:41:43.225Z,101911.34
2023-02-12T19:44:18.840Z,101916.66
2023-02-12T19:46:47.705Z,101925.28
2023-02-12T19:49:26.244Z,101923.50
2023-02-12T19:51:53.847Z,101926.84
2023-02-12T19:54:22.848Z,101921.19
2023-02-12T19:56:51.436Z,101920.88
2023-02-12T19:59:27.226Z,101928.59
2023-02-12T20:01:58.015Z,101928.03
2023-02-12T20:04:25.940Z,101934.38
2023-02-12T20:06:53.454Z,101930.88
2023-02-12T20:09:21.913Z,101927.25
2023-02-12T20:11:50.292Z,101933.44
2023-02-12T20:14:18.224Z,101943.09
2023-02-12T20:16:46.895Z,101942.94
2023-02-12T20:19:21.077Z,101949.81
2023-02-12T20:21:54.301Z,101942.13
2023-02-12T20:24:27.452Z,101936.81
2023-02-12T20:26:58.585Z,101943.56
2023-02-12T20:29:26.455Z,101950.53
2023-02-12T20:31:54.389Z,101958.81
2023-02-12T20:34:22.389Z,101952.13
2023-02-12T20:36:50.364Z,101952.25
2023-02-12T20:39:19.649Z,101955.91
2023-02-12T20:41:49.216Z,101956.31
2023-02-12T20:44:20.018Z,101962.50
2023-02-12T20:46:50.109Z,101963.62
2023-02-12T20:49:20.175Z,101964.56
2023-02-12T20:51:50.200Z,101972.37
2023-02-12T20:54:18.132Z,101981.06
2023-02-12T20:56:46.050Z,101982.78
2023-02-12T20:59:13.627Z,101990.00
2023-02-12T21:01:41.965Z,102000.78
2023-02-12T21:04:12.418Z,102002.81
2023-02-12T21:06:40.498Z,102001.53
2023-02-12T21:09:09.830Z,101999.37
2023-02-12T21:11:39.967Z,102004.03
2023-02-12T21:14:21.196Z,102003.59
2023-02-12T21:16:50.485Z,102005.72
2023-02-12T21:19:18.827Z,102009.75
2023-02-12T21:21:47.861Z,102007.34
2023-02-12T21:24:18.291Z,101996.03
2023-02-12T21:26:45.809Z,102002.38
2023-02-12T21:29:13.747Z,102000.75
2023-02-12T21:31:43.839Z,102000.56
2023-02-12T21:34:18.248Z,101995.31
2023-02-12T21:36:47.382Z,101992.22
2023-02-12T21:39:25.019Z,101987.97
2023-02-12T21:41:58.109Z,101986.81
2023-02-12T21:44:26.296Z,101999.03
2023-02-12T21:46:54.945Z,102001.53
2023-02-12T21:49:27.626Z,101990.75
2023-02-12T21:52:04.344Z,101999.81
2023-02-12T21:54:31.995Z,102003.28
2023-02-12T21:57:00.321Z,102011.88
2023-02-12T21:59:30.686Z,102012.38
2023-02-12T22:02:00.663Z,102016.00
2023-02-12T22:04:29.081Z,102019.84
2023-02-12T22:06:58.014Z,102023.44
2023-02-12T22:09:25.918Z,102030.63
2023-02-12T22:11:54.778Z,102036.69
2023-02-12T22:14:22.458Z,102034.00
2023-02-12T22:16:50.368Z,102045.28
2023-02-12T22:19:18.946Z,102035.91
2023-02-12T22:21:46.547Z,102038.53
2023-02-12T22:24:15.975Z,102037.66
2023-02-12T22:26:44.198Z,102046.06
2023-02-12T22:29:14.287Z,102057.22
2023-02-12T22:31:43.514Z,102051.53
2023-02-12T22:34:14.393Z,102054.53
2023-02-12T22:36:43.117Z,102050.28
2023-02-12T22:39:13.112Z,102046.56
2023-02-12T22:41:42.481Z,102051.81
2023-02-12T22:44:12.360Z,102054.28
2023-02-12T22:46:41.935Z,102056.38
2023-02-12T22:49:10.144Z,102051.06
2023-02-12T22:51:39.871Z,102050.06
2023-02-12T22:54:12.517Z,102053.78
2023-02-12T22:56:40.466Z,102055.50
2023-02-12T22:59:10.135Z,102056.87
2023-02-12T23:01:39.671Z,102052.34
2023-02-12T23:04:07.759Z,102048.13
2023-02-12T23:06:36.182Z,102043.16
2023-02-12T23:09:04.887Z,102051.09
2023-02-12T23:11:33.141Z,102048.13
2023-02-12T23:14:01.480Z,102057.34
2023-02-12T23:16:29.388Z,102065.75
2023-02-12T23:18:58.701Z,102063.97
2023-02-12T23:21:27.874Z,102062.44
2023-02-12T23:23:56.767Z,102053.91
2023-02-12T23:26:24.997Z,102053.25
2023-02-12T23:28:53.170Z,102052.00
2023-02-12T23:31:21.119Z,102056.81
2023-02-12T23:33:48.771Z,102058.69
2023-02-12T23:36:16.863Z,102067.66
2023-02-12T23:38:44.848Z,102065.75
2023-02-12T23:41:12.480Z,102058.62
2023-02-12T23:43:40.494Z,102067.28
2023-02-12T23:46:09.570Z,102066.59
2023-02-12T23:48:37.282Z,102059.41
2023-02-12T23:51:05.397Z,102062.12
2023-02-12T23:53:34.226Z,102061.72
2023-02-12T23:56:01.749Z,102054.84
2023-02-12T23:58:29.482Z,102060.75
